NCAR-RAP Real-Time Weather Data

Output produced by METARs form (26 May 2022  07:39 UTC)
found at http://weather.rap.ucar.edu/surface/
 
KNYC 260651Z AUTO VRB03KT 10SM CLR 13/07 A3035 RMK AO2 SLP267 T01330067 $
KNYC 260551Z AUTO 00000KT 10SM CLR 13/06 A3036 RMK AO2 SLP273 T01330056 10150 20128 58011 $
KNYC 260451Z AUTO VRB03KT 10SM CLR 13/04 A3039 RMK AO2 SLP280 T01330044 402110117 $
KNYC 260351Z AUTO 00000KT 10SM CLR 14/03 A3039 RMK AO2 SLP281 T01390033 $
KNYC 260251Z AUTO VRB03KT 10SM CLR 13/05 A3040 RMK AO2 SLP284 T01330050 50001 $
KNYC 260151Z AUTO 00000KT 10SM CLR 13/06 A3040 RMK AO2 SLP285 T01330061 $
KNYC 260051Z AUTO 00000KT 10SM CLR 14/06 A3040 RMK AO2 SLP284 T01390061 $
KNYC 252351Z AUTO 10SM CLR 15/06 A3039 RMK AO2 SLP282 T01500061 10211 20150 53005 $
KNYC 252251Z AUTO 10SM CLR 16/07 A3038 RMK AO2 SLP278 T01560067 $
KNYC 252151Z AUTO VRB05KT 10SM CLR 17/08 A3038 RMK AO2 SLP278 T01670078 $
KNYC 252051Z AUTO VRB04KT 10SM CLR 18/08 A3038 RMK AO2 SLP277 T01780083 58006 $
KNYC 251951Z AUTO 10SM CLR 19/08 A3039 RMK AO2 SLP282 T01890083 $
KNYC 251851Z AUTO 10SM CLR 20/08 A3039 RMK AO2 SLP281 T02000078 $
KNYC 251751Z AUTO VRB03KT 10SM FEW080 21/08 A3039 RMK AO2 SLP283 T02060078 10211 20144 58009 $
KNYC 251651Z AUTO VRB03KT 10SM OVC080 20/08 A3040 RMK AO2 SLP285 T02000078 $
KNYC 251551Z AUTO 00000KT 10SM CLR 20/07 A3042 RMK AO2 SLP292 T02000067 $
KNYC 251451Z AUTO VRB05KT 10SM CLR 18/08 A3042 RMK AO2 SLP292 T01780078 58001 $
KNYC 251351Z AUTO VRB03KT 8SM CLR 17/07 A3042 RMK AO2 SLP293 T01720072 $
KNYC 251251Z AUTO VRB03KT 10SM CLR 16/07 A3042 RMK AO2 SLP293 T01560072 $
KNYC 251151Z AUTO 07005KT 10SM CLR 14/07 A3042 RMK AO2 SLP293 T01440072 10144 20117 53017 $
KNYC 251051Z AUTO VRB04KT 10SM CLR 13/09 A3040 RMK AO2 SLP285 T01330094 $
KNYC 250951Z AUTO 00000KT 10SM CLR 12/09 A3037 RMK AO2 SLP277 T01220094 $
KNYC 250851Z AUTO VRB04KT 10SM CLR 13/08 A3037 RMK AO2 SLP276 T01280083 51007 $
KNYC 250751Z AUTO VRB04KT 10SM CLR 12/08 A3036 RMK AO2 SLP271 T01220078 $
KNYC 250651Z AUTO 00000KT 10SM CLR 13/07 A3037 RMK AO2 SLP274 T01330072 $
KNYC 250551Z AUTO 00000KT 10SM CLR 14/08 A3035 RMK AO2 SLP269 T01390078 10156 20133 58002 $
KNYC 250451Z AUTO VRB06KT 10SM CLR 14/07 A3035 RMK AO2 SLP270 T01390072 401940139 $
KNYC 250351Z AUTO 00000KT 10SM CLR 14/07 A3036 RMK AO2 SLP272 T01440072 $
KNYC 250251Z AUTO 00000KT 10SM CLR 14/07 A3036 RMK AO2 SLP271 T01390067 51010 $
KNYC 250151Z AUTO 00000KT 10SM OVC090 15/08 A3036 RMK AO2 SLP271 T01500078 $
KNYC 250051Z AUTO 00000KT 10SM OVC090 15/08 A3035 RMK AO2 SLP267 T01500083 $
KNYC 242351Z AUTO VRB04KT 10SM OVC095 16/08 A3033 RMK AO2 SLP261 T01560083 10194 20156 53006 $
KNYC 242251Z AUTO VRB04KT 10SM OVC090 17/07 A3032 RMK AO2 SLP256 T01720067 $
KNYC 242151Z AUTO 06004KT 10SM OVC090 19/09 A3031 RMK AO2 SLP254 T01890089 $
KNYC 242051Z AUTO VRB03KT 10SM OVC090 19/09 A3031 RMK AO2 SLP255 T01890094 57005 $
KNYC 241951Z AUTO 00000KT 10SM FEW050 OVC085 19/09 A3032 RMK AO2 SLP257 T01890089 $
KNYC 241851Z AUTO VRB04KT 10SM FEW046 BKN055 OVC080 19/09 A3032 RMK AO2 SLP258 T01940094 $
KNYC 241751Z AUTO 06005KT 10SM OVC080 19/09 A3033 RMK AO2 SLP260 T01890089 10194 20156 58004 $
KNYC 241651Z AUTO VRB04KT 10SM OVC085 18/09 A3033 RMK AO2 SLP263 T01830094 $
KNYC 241551Z AUTO VRB06KT 10SM OVC090 17/09 A3034 RMK AO2 SLP265 T01720094 $
KNYC 241451Z AUTO 06010G15KT 010V080 10SM OVC090 16/08 A3034 RMK AO2 SLP264 T01610083 53007 $
KNYC 241351Z AUTO 06011G17KT 10SM OVC085 17/08 A3032 RMK AO2 SLP260 T01670083 $
KNYC 241251Z AUTO 06009KT 10SM OVC049 16/10 A3033 RMK AO2 SLP261 T01610100 $
KNYC 241151Z AUTO 06009KT 10SM OVC044 16/10 A3032 RMK AO2 SLP257 60000 T01560100 10172 20156 51021 $
KNYC 241051Z AUTO 06006KT 10SM FEW095 16/11 A3029 RMK AO2 SLP249 T01560106 $
KNYC 240951Z AUTO 06005KT 10SM CLR 16/08 A3028 RMK AO2 SLP244 T01610078 $
KNYC 240851Z AUTO 11005KT 10SM FEW110 16/11 A3025 RMK AO2 SLP236 60000 T01560106 51002 $
KNYC 240751Z AUTO VRB04KT 10SM OVC100 16/11 A3025 RMK AO2 RAB03E20 SLP235 P0000 T01610111 $